Pine, New Mexico
Current Conditions -  °F | °C
As of 6:53 PM on Thursday 18 Dec 2014 (Local Time) from KLVS Reporting Station
Scattered Clouds Scattered Clouds  
Wind Chill: 25°   Ceiling: Unl
Heat Index: 32°   Visibility: 10mi
Dew Point: 19°   Wind: 8mph
Humidity: 59%   Direction: 150°SSE
Pressure: 30.03"   Gusts: NA
Location:  35.582°N, 105.558°W
Report Text: KLVS 190153Z AUTO 15007KT 10SM FEW100 SCT110 00/M07 A3003 RMK AO2 SLP168 T00001072
Loading
Personal Weather Stations






























Interactive Weather Map New forecast layout! Learn more

10-Day Weather Forecast

Advertisements
Track Severe Weather on mobile